Time;durP1;ratioP1;P1;durP2;ratioP2;P2;SDS_P1;SDS_P2;PMS_P1;PMS_P2;Temp;Humidity;BMP_temperature;BMP_pressure;BME280_temperature;BME280_humidity;BME280_pressure;Samples;Min_cycle;Max_cycle;Signal;HPM_P1;HPM_P2
2022/06/23 00:01:13;;;;;;;2.10;1.02;;;;;;;24.54;44.96;99071.22;4449862;32;33018;-84
2022/06/23 00:03:42;;;;;;;1.30;0.80;;;;;;;24.65;45.06;99077.34;4461655;32;33716;-84
2022/06/23 00:06:26;;;;;;;1.77;1.00;;;;;;;24.66;44.97;99079.03;4454688;32;35172;-85
2022/06/23 00:08:55;;;;;;;2.67;0.82;;;;;;;24.77;44.07;99082.62;4460767;32;33789;-84
2022/06/23 00:11:27;;;;;;;1.87;0.93;;;;;;;24.55;44.82;99087.03;4457888;32;34135;-83
2022/06/23 00:14:10;;;;;;;2.50;1.12;;;;;;;24.59;44.02;99087.59;4448408;32;33354;-84
2022/06/23 00:16:40;;;;;;;2.00;1.05;;;;;;;24.36;44.65;99087.63;4450073;32;34047;-84
2022/06/23 00:19:12;;;;;;;2.53;1.00;;;;;;;24.40;43.51;99096.16;4459951;32;34331;-84
2022/06/23 00:21:45;;;;;;;6.00;1.00;;;;;;;24.59;43.07;99099.03;4447213;32;33172;-84
2022/06/23 00:24:18;;;;;;;1.10;0.70;;;;;;;24.40;43.46;99099.66;4454916;32;33678;-84
2022/06/23 00:26:47;;;;;;;2.00;0.90;;;;;;;24.38;43.71;99098.94;4447618;32;35027;-84
2022/06/23 00:29:18;;;;;;;1.48;0.85;;;;;;;24.27;41.61;99093.66;4455618;32;34534;-83
2022/06/23 00:31:55;;;;;;;1.50;1.00;;;;;;;23.93;42.32;99108.72;4459584;32;33405;-84
2022/06/23 00:34:28;;;;;;;1.62;0.88;;;;;;;24.19;42.99;99117.28;4461696;32;33742;-84
2022/06/23 00:37:03;;;;;;;2.37;0.70;;;;;;;23.73;44.06;99115.53;4460391;32;33997;-84
2022/06/23 00:39:35;;;;;;;1.23;0.90;;;;;;;23.61;43.98;99112.84;4460061;32;32736;-84
2022/06/23 00:42:07;;;;;;;1.37;0.90;;;;;;;24.04;41.91;99106.06;4455387;32;33008;-84
2022/06/23 00:44:39;;;;;;;2.15;0.70;;;;;;;24.06;40.24;99110.25;4449008;32;33248;-84
2022/06/23 00:47:15;;;;;;;1.33;0.70;;;;;;;23.74;40.06;99120.72;4445959;32;33828;-84
2022/06/23 00:49:50;;;;;;;1.52;0.88;;;;;;;23.98;38.36;99131.22;4462131;32;33010;-84
2022/06/23 00:52:22;;;;;;;0.80;0.70;;;;;;;23.75;38.14;99135.66;4462133;32;33416;-85
2022/06/23 00:54:54;;;;;;;1.35;0.98;;;;;;;23.74;37.93;99144.56;4461444;32;34771;-84
2022/06/23 00:57:27;;;;;;;1.15;0.82;;;;;;;23.64;38.22;99149.69;4445454;32;33572;-85
2022/06/23 01:00:04;;;;;;;0.82;0.65;;;;;;;23.92;37.96;99146.75;4460675;32;33831;-84
2022/06/23 01:02:38;;;;;;;1.77;0.82;;;;;;;23.93;37.80;99145.81;4458068;32;33247;-84
2022/06/23 01:05:14;;;;;;;1.65;0.80;;;;;;;23.90;37.65;99148.69;4469453;32;33346;-84
2022/06/23 01:07:50;;;;;;;0.70;0.62;;;;;;;23.91;38.54;99150.38;4463385;32;34015;-84
2022/06/23 01:10:24;;;;;;;2.08;1.08;;;;;;;23.77;38.46;99154.91;4464311;32;33562;-84
2022/06/23 01:13:01;;;;;;;0.98;0.68;;;;;;;23.83;37.30;99138.56;4463666;32;33998;-85
2022/06/23 01:15:35;;;;;;;1.77;1.58;;;;;;;23.96;39.64;99141.09;4464569;32;34292;-85
2022/06/23 01:18:10;;;;;;;1.12;0.68;;;;;;;24.09;40.09;99142.78;4462690;32;34696;-84
2022/06/23 01:20:47;;;;;;;0.60;0.52;;;;;;;23.97;40.06;99141.94;4469746;32;34034;-85
2022/06/23 01:23:30;;;;;;;1.05;0.90;;;;;;;23.94;40.62;99139.53;4468795;32;33365;-84
2022/06/23 01:26:18;;;;;;;1.15;0.70;;;;;;;23.73;43.32;99150.81;4463340;32;34520;-83
2022/06/23 01:28:49;;;;;;;0.98;0.62;;;;;;;23.85;45.35;99149.88;4460738;32;33481;-84
2022/06/23 01:31:22;;;;;;;1.25;0.90;;;;;;;23.71;45.83;99154.53;4448590;32;32102;-83
2022/06/23 01:33:55;;;;;;;1.17;0.70;;;;;;;23.74;46.25;99157.81;4446826;32;31871;-83
2022/06/23 01:36:35;;;;;;;0.50;0.50;;;;;;;23.09;47.23;99166.19;4460318;32;33452;-83
2022/06/23 01:39:05;;;;;;;1.50;0.90;;;;;;;23.41;47.23;99159.38;4470705;32;34671;-82
2022/06/23 01:41:38;;;;;;;2.35;0.73;;;;;;;23.37;47.58;99168.50;4463874;32;32462;-82
2022/06/23 01:44:12;;;;;;;1.20;0.80;;;;;;;23.54;45.78;99169.87;4459495;32;33328;-82
2022/06/23 01:46:43;;;;;;;1.42;0.77;;;;;;;22.80;50.25;99166.47;4464058;32;33198;-82
2022/06/23 01:49:15;;;;;;;0.73;0.60;;;;;;;22.84;51.92;99157.38;4462158;32;34499;-81
2022/06/23 01:51:48;;;;;;;3.08;0.88;;;;;;;22.59;53.40;99142.41;4461699;32;33418;-81
2022/06/23 01:54:24;;;;;;;2.28;1.27;;;;;;;22.47;53.13;99144.16;4464709;32;34026;-82
2022/06/23 01:56:58;;;;;;;1.25;0.68;;;;;;;22.55;52.53;99140.97;4463803;32;33839;-81
2022/06/23 01:59:58;;;;;;;0.95;0.73;;;;;;;22.49;53.66;99149.31;4462544;32;33795;-83
2022/06/23 02:02:46;;;;;;;1.25;0.93;;;;;;;22.51;52.64;99142.97;4464389;32;34100;-82
2022/06/23 02:05:23;;;;;;;0.70;0.70;;;;;;;22.56;52.08;99138.19;4462637;32;32892;-81
2022/06/23 02:07:54;;;;;;;0.82;0.73;;;;;;;22.47;51.97;99149.44;4462808;32;34835;-81
2022/06/23 02:10:24;;;;;;;;;;;;;;;22.56;52.01;99147.94;4463470;32;33795;-82
2022/06/23 02:12:57;;;;;;;1.27;0.70;;;;;;;22.45;52.22;99155.78;4466560;32;34567;-81
2022/06/23 02:15:30;;;;;;;2.47;0.98;;;;;;;22.56;51.86;99147.94;4469253;32;33737;-82
2022/06/23 02:18:01;;;;;;;1.40;0.98;;;;;;;22.52;50.39;99149.09;4460689;32;33695;-81
2022/06/23 02:20:38;;;;;;;1.60;1.00;;;;;;;22.23;51.02;99146.72;4463725;32;33960;-82
2022/06/23 02:23:13;;;;;;;2.10;1.05;;;;;;;22.26;51.61;99153.59;4462060;32;33610;-82
2022/06/23 02:25:50;;;;;;;1.45;1.10;;;;;;;22.36;52.08;99144.06;4463353;32;32966;-82
2022/06/23 02:28:26;;;;;;;2.50;0.95;;;;;;;22.25;52.68;99146.59;4462577;32;33876;-82
2022/06/23 02:31:02;;;;;;;1.15;0.85;;;;;;;22.29;52.03;99148.94;4469111;32;34629;-81
2022/06/23 02:33:33;;;;;;;1.08;0.90;;;;;;;22.26;52.11;99145.66;4462088;32;34232;-82
2022/06/23 02:36:06;;;;;;;1.10;0.90;;;;;;;22.08;52.58;99147.75;4463488;32;33239;-82
2022/06/23 02:38:37;;;;;;;1.12;0.80;;;;;;;22.03;51.78;99150.72;4462527;32;33932;-82
2022/06/23 02:41:10;;;;;;;2.15;0.90;;;;;;;22.08;51.71;99164.44;4462170;32;33547;-81
2022/06/23 02:43:43;;;;;;;3.20;0.80;;;;;;;22.11;51.13;99169.53;4448120;32;34552;-81
2022/06/23 02:47:00;;;;;;;1.23;0.70;;;;;;;22.26;50.85;99177.37;4455584;32;33410;-82
2022/06/23 02:49:52;;;;;;;1.08;0.88;;;;;;;22.27;50.67;99185.19;4453294;32;34383;-81
2022/06/23 02:52:54;;;;;;;0.93;0.70;;;;;;;22.16;51.39;99183.25;4466175;32;34574;-81
2022/06/23 02:55:38;;;;;;;1.60;0.98;;;;;;;22.09;51.04;99179.34;4453320;32;33792;-82
2022/06/23 02:58:10;;;;;;;1.10;1.00;;;;;;;22.01;51.54;99189.59;4453619;32;34497;-82
2022/06/23 03:00:44;;;;;;;1.70;0.80;;;;;;;22.09;50.63;99189.09;4463281;32;33799;-82
2022/06/23 03:03:21;;;;;;;1.23;0.77;;;;;;;22.11;51.66;99205.69;4463051;32;33981;-82
2022/06/23 03:05:53;;;;;;;0.90;0.60;;;;;;;22.07;51.82;99209.47;4462088;32;33991;-82
2022/06/23 03:08:28;;;;;;;1.05;0.77;;;;;;;22.10;51.48;99196.88;4463106;32;33500;-82
2022/06/23 03:10:59;;;;;;;1.35;1.00;;;;;;;21.93;51.41;99199.84;4468434;32;32305;-82
2022/06/23 03:13:35;;;;;;;1.05;0.80;;;;;;;21.99;51.00;99194.16;4454804;32;33133;-82
2022/06/23 03:16:10;;;;;;;1.60;0.70;;;;;;;21.96;50.65;99199.63;4463333;32;33892;-82
2022/06/23 03:18:48;;;;;;;0.98;0.80;;;;;;;22.12;50.92;99216.13;4460802;32;33207;-83
2022/06/23 03:21:21;;;;;;;0.57;0.57;;;;;;;22.14;51.03;99227.44;4461694;32;33768;-82
2022/06/23 03:23:53;;;;;;;1.73;1.08;;;;;;;22.09;51.86;99218.13;4463354;32;34860;-82
2022/06/23 03:26:27;;;;;;;1.15;0.90;;;;;;;22.05;50.66;99222.78;4468651;32;33522;-83
2022/06/23 03:29:00;;;;;;;1.62;0.73;;;;;;;22.18;51.86;99228.09;4466194;32;33419;-82
2022/06/23 03:31:33;;;;;;;2.20;0.77;;;;;;;22.12;52.83;99224.03;4461692;32;33896;-82
2022/06/23 03:34:06;;;;;;;1.85;1.10;;;;;;;22.11;53.24;99219.72;4462256;32;33699;-82
2022/06/23 03:36:41;;;;;;;1.52;0.75;;;;;;;22.15;53.22;99223.81;4462777;32;33128;-83
2022/06/23 03:42:09;;;;;;;1.37;0.95;;;;;;;22.04;53.88;99221.09;4460833;32;34146;-83
2022/06/23 03:44:45;;;;;;;1.05;0.70;;;;;;;22.11;53.97;99222.38;4468512;32;33618;-82
2022/06/23 03:47:19;;;;;;;1.50;0.90;;;;;;;22.06;53.49;99228.88;4461177;32;33358;-82
2022/06/23 03:49:53;;;;;;;1.00;0.80;;;;;;;22.23;53.10;99233.06;4446955;32;34170;-83
2022/06/23 03:52:27;;;;;;;1.90;1.00;;;;;;;22.08;52.87;99233.13;4454144;32;34483;-83
2022/06/23 03:55:00;;;;;;;2.83;0.98;;;;;;;22.33;52.62;99232.34;4461758;32;34101;-83
2022/06/23 03:57:32;;;;;;;1.52;0.85;;;;;;;22.35;52.34;99246.28;4462908;32;34667;-83
2022/06/23 04:00:13;;;;;;;1.73;1.10;;;;;;;22.50;52.03;99251.47;4467499;32;33327;-82
2022/06/23 04:02:45;;;;;;;0.75;0.70;;;;;;;22.51;52.37;99250.50;4460977;32;34324;-83
2022/06/23 04:05:20;;;;;;;1.92;0.88;;;;;;;22.72;51.22;99256.09;4461197;32;33498;-83
2022/06/23 04:07:53;;;;;;;1.67;0.80;;;;;;;22.78;49.62;99253.00;4462302;32;32167;-83
2022/06/23 04:10:27;;;;;;;1.80;1.10;;;;;;;22.84;47.67;99263.16;4462153;32;32734;-82
2022/06/23 04:13:13;;;;;;;0.93;0.70;;;;;;;22.84;49.52;99262.31;4463539;32;34080;-83
2022/06/23 04:15:42;;;;;;;1.30;0.80;;;;;;;22.81;49.57;99263.38;4462279;32;34742;-83
2022/06/23 04:18:17;;;;;;;1.42;0.93;;;;;;;22.89;50.03;99266.31;4461072;32;33188;-84
2022/06/23 04:20:53;;;;;;;1.52;0.88;;;;;;;23.00;46.63;99261.16;4461764;32;33922;-83
2022/06/23 04:23:26;;;;;;;0.85;0.82;;;;;;;23.20;45.71;99274.75;4461072;32;33861;-83
2022/06/23 04:25:58;;;;;;;1.37;0.75;;;;;;;23.25;45.37;99269.13;4463461;32;33630;-83
2022/06/23 04:28:34;;;;;;;1.20;0.80;;;;;;;23.12;44.45;99275.31;4468280;32;33405;-83
2022/06/23 04:31:06;;;;;;;0.62;0.62;;;;;;;23.43;43.60;99271.25;4464777;32;34039;-83
2022/06/23 04:33:38;;;;;;;1.15;0.62;;;;;;;23.37;44.35;99273.53;4461493;32;33912;-83
2022/06/23 04:36:18;;;;;;;1.25;0.93;;;;;;;23.58;44.77;99279.91;4464249;32;33987;-83
2022/06/23 04:38:51;;;;;;;1.48;0.88;;;;;;;23.75;44.27;99278.69;4463235;32;34589;-83
2022/06/23 04:41:23;;;;;;;1.67;1.10;;;;;;;23.51;44.54;99283.97;4463349;32;33482;-82
2022/06/23 04:43:58;;;;;;;1.05;0.75;;;;;;;23.64;44.46;99284.72;4465648;32;33682;-83
2022/06/23 04:46:31;;;;;;;1.75;0.88;;;;;;;23.86;43.79;99285.81;4465691;32;34337;-83
2022/06/23 04:49:03;;;;;;;1.67;0.77;;;;;;;24.12;41.93;99294.47;4462937;32;34524;-83
2022/06/23 04:51:35;;;;;;;2.03;0.90;;;;;;;24.43;40.92;99300.94;4462424;32;33809;-83
2022/06/23 04:54:11;;;;;;;2.62;0.98;;;;;;;24.63;39.96;99301.22;4463273;32;34031;-84
2022/06/23 04:56:46;;;;;;;1.87;1.00;;;;;;;24.42;38.76;99301.88;4463999;32;34669;-84
2022/06/23 04:59:25;;;;;;;0.95;0.60;;;;;;;24.84;38.54;99302.19;4468616;32;33847;-83
2022/06/23 05:01:56;;;;;;;2.85;0.60;;;;;;;24.35;38.02;99307.78;4463218;32;32927;-83
2022/06/23 05:04:25;;;;;;;;;;;;;;;24.32;38.46;99313.31;4462699;32;33332;-83
2022/06/23 05:06:58;;;;;;;1.20;1.00;;;;;;;24.36;37.80;99314.78;4464228;32;34853;-84
2022/06/23 05:09:36;;;;;;;2.03;0.90;;;;;;;24.34;38.63;99319.34;4462010;32;34170;-83
2022/06/23 05:12:08;;;;;;;2.12;0.98;;;;;;;24.22;38.92;99315.81;4468598;32;33238;-83
2022/06/23 05:14:44;;;;;;;1.20;0.70;;;;;;;24.27;38.42;99318.97;4464251;32;33543;-85
2022/06/23 05:17:16;;;;;;;0.93;0.80;;;;;;;24.35;38.44;99327.16;4462947;32;33684;-83
2022/06/23 05:19:46;;;;;;;0.73;0.70;;;;;;;24.47;38.90;99325.41;4464146;32;33822;-83
2022/06/23 05:22:24;;;;;;;1.05;0.70;;;;;;;24.60;36.41;99333.31;4461783;32;33029;-84
2022/06/23 05:24:55;;;;;;;1.75;1.17;;;;;;;24.88;37.17;99334.62;4464211;32;34786;-84
2022/06/23 05:27:26;;;;;;;1.05;0.70;;;;;;;25.13;36.34;99331.75;4468677;32;34696;-85
2022/06/23 05:30:02;;;;;;;1.17;0.68;;;;;;;25.15;37.84;99336.91;4464096;32;34333;-84
2022/06/23 05:32:35;;;;;;;0.98;0.70;;;;;;;25.42;36.57;99344.53;4461691;32;33943;-84
2022/06/23 05:35:07;;;;;;;1.20;0.73;;;;;;;25.98;35.40;99340.91;4461030;32;33995;-84
2022/06/23 05:37:43;;;;;;;1.80;0.88;;;;;;;26.26;33.22;99349.22;4462707;32;34007;-84
2022/06/23 05:40:19;;;;;;;1.52;0.60;;;;;;;26.14;32.37;99346.66;4463158;32;33555;-84
2022/06/23 05:42:50;;;;;;;1.05;0.60;;;;;;;26.20;31.60;99345.28;4468563;32;33345;-84
2022/06/23 05:45:20;;;;;;;;;;;;;;;26.36;32.22;99350.12;4465412;32;34267;-85
2022/06/23 05:47:49;;;;;;;1.80;0.90;;;;;;;26.31;31.83;99355.88;4470202;32;34064;-85
2022/06/23 05:50:21;;;;;;;0.77;0.57;;;;;;;26.26;32.75;99354.53;4463902;32;33680;-84
2022/06/23 05:52:55;;;;;;;0.80;0.57;;;;;;;26.55;32.08;99360.94;4461446;32;33159;-85
2022/06/23 05:55:30;;;;;;;1.30;0.70;;;;;;;26.43;31.70;99367.25;4465465;32;33457;-84
2022/06/23 05:58:03;;;;;;;1.00;0.60;;;;;;;26.73;30.91;99358.53;4468364;32;33894;-84
2022/06/23 06:00:36;;;;;;;2.05;0.85;;;;;;;27.21;29.42;99360.63;4463863;32;33290;-85
2022/06/23 06:03:10;;;;;;;2.12;0.75;;;;;;;26.51;29.87;99366.66;4461566;32;33441;-84
2022/06/23 06:05:41;;;;;;;1.73;1.17;;;;;;;26.67;29.63;99358.22;4463714;32;33630;-84
2022/06/23 06:08:17;;;;;;;1.85;1.10;;;;;;;26.46;30.88;99363.50;4462377;32;33892;-84
2022/06/23 06:10:47;;;;;;;1.27;0.62;;;;;;;26.73;29.67;99363.88;4461871;32;33905;-85
2022/06/23 06:13:21;;;;;;;1.15;0.50;;;;;;;26.59;30.05;99370.34;4465239;32;33234;-84
2022/06/23 06:15:53;;;;;;;1.45;0.70;;;;;;;26.65;31.27;99368.13;4460659;32;34154;-85
2022/06/23 06:18:24;;;;;;;1.35;0.77;;;;;;;26.42;31.08;99365.59;4466337;32;33559;-85
2022/06/23 06:20:55;;;;;;;1.90;0.70;;;;;;;26.49;30.93;99377.41;4463039;32;33887;-85
2022/06/23 06:23:33;;;;;;;1.58;0.70;;;;;;;26.64;29.70;99387.75;4462182;32;33209;-85
2022/06/23 06:26:02;;;;;;;0.98;0.60;;;;;;;26.44;30.76;99387.59;4463558;32;34124;-85
2022/06/23 06:28:33;;;;;;;3.62;0.70;;;;;;;26.53;30.80;99386.84;4466698;32;34021;-84
2022/06/23 06:31:08;;;;;;;1.30;0.75;;;;;;;26.57;29.83;99382.09;4461956;32;33325;-85
2022/06/23 06:33:46;;;;;;;0.95;0.40;;;;;;;26.76;29.69;99379.56;4462814;32;33488;-84
2022/06/23 06:36:25;;;;;;;1.10;0.60;;;;;;;26.58;29.70;99381.16;4463829;32;34640;-84
2022/06/23 06:39:03;;;;;;;0.73;0.60;;;;;;;26.34;30.21;99384.03;4460764;32;34166;-85
2022/06/23 06:41:32;;;;;;;2.33;0.98;;;;;;;26.50;29.77;99388.88;4459938;32;33549;-85
2022/06/23 06:44:02;;;;;;;0.60;0.60;;;;;;;26.53;29.69;99391.28;4459615;32;33013;-85
2022/06/23 06:46:31;;;;;;;1.48;0.65;;;;;;;26.68;30.31;99392.69;4448135;32;33565;-85
2022/06/23 06:49:00;;;;;;;1.95;0.60;;;;;;;26.32;30.24;99396.59;4458169;32;33508;-85
2022/06/23 06:51:30;;;;;;;1.30;0.60;;;;;;;26.21;30.17;99396.63;4470194;32;34104;-85
2022/06/23 06:54:02;;;;;;;2.37;0.70;;;;;;;26.45;29.03;99396.41;4477747;32;33319;-85
2022/06/23 06:56:37;;;;;;;0.60;0.50;;;;;;;26.56;29.68;99393.72;4483686;32;33479;-85
2022/06/23 06:59:12;;;;;;;1.95;0.73;;;;;;;26.50;29.23;99403.03;4477334;32;33946;-85
2022/06/23 07:01:42;;;;;;;0.75;0.52;;;;;;;26.67;29.27;99403.44;4454777;32;34402;-85
2022/06/23 07:04:15;;;;;;;1.17;0.73;;;;;;;26.43;29.56;99404.50;4457513;32;33633;-85
2022/06/23 07:06:46;;;;;;;2.20;0.80;;;;;;;26.36;29.87;99409.50;4446619;32;33421;-85
2022/06/23 07:09:27;;;;;;;1.20;0.60;;;;;;;26.50;28.82;99403.03;4449095;32;33600;-85
2022/06/23 07:12:01;;;;;;;1.10;0.62;;;;;;;26.60;29.44;99406.66;4462604;32;34421;-85
2022/06/23 07:14:34;;;;;;;1.23;0.57;;;;;;;26.80;29.04;99412.09;4460062;32;33547;-85
2022/06/23 07:17:06;;;;;;;2.40;0.85;;;;;;;27.21;29.25;99411.22;4455914;32;34613;-85
2022/06/23 07:19:39;;;;;;;1.08;0.77;;;;;;;26.94;29.39;99410.88;4463366;32;34847;-85
2022/06/23 07:22:14;;;;;;;2.45;1.33;;;;;;;27.01;28.41;99406.72;4461545;32;34455;-85
2022/06/23 07:24:49;;;;;;;0.95;0.62;;;;;;;26.79;30.43;99418.38;4472998;31;33252;-85
2022/06/23 07:27:22;;;;;;;1.12;0.55;;;;;;;27.23;29.60;99419.91;4462343;32;33748;-85
2022/06/23 07:29:57;;;;;;;1.05;0.60;;;;;;;27.22;29.37;99423.53;4453271;32;34676;-85
2022/06/23 07:32:35;;;;;;;2.50;0.60;;;;;;;27.23;28.98;99419.91;4452391;32;34410;-86
2022/06/23 07:35:12;;;;;;;1.37;0.50;;;;;;;27.14;29.40;99422.50;4448063;32;33009;-85
2022/06/23 07:37:44;;;;;;;1.77;0.82;;;;;;;27.30;29.37;99422.03;4448150;32;33854;-85
2022/06/23 07:40:15;;;;;;;1.65;0.80;;;;;;;27.29;27.27;99431.00;4447514;32;33908;-85
2022/06/23 07:42:52;;;;;;;0.70;0.45;;;;;;;27.03;28.13;99431.41;4453058;32;33745;-85
2022/06/23 07:45:25;;;;;;;1.52;0.60;;;;;;;27.30;27.17;99430.03;4462810;32;31513;-85
2022/06/23 07:47:54;;;;;;;1.27;0.47;;;;;;;26.89;29.18;99435.25;4462873;32;33489;-86
2022/06/23 07:50:23;;;;;;;1.90;1.25;;;;;;;27.12;28.04;99438.59;4462532;32;33984;-85
2022/06/23 07:52:52;;;;;;;0.40;0.40;;;;;;;27.30;27.88;99436.19;4458514;32;34429;-85
2022/06/23 07:55:24;;;;;;;0.43;0.35;;;;;;;27.46;28.69;99435.72;4457186;32;34121;-86
2022/06/23 07:58:14;;;;;;;1.65;0.65;;;;;;;27.31;27.70;99439.72;4462408;32;33888;-85
2022/06/23 08:00:44;;;;;;;0.50;0.40;;;;;;;27.05;27.96;99436.59;4459269;32;32898;-86
2022/06/23 08:03:15;;;;;;;1.30;0.88;;;;;;;27.61;25.95;99449.50;4445434;32;33303;-85
2022/06/23 08:05:45;;;;;;;;;;;;;;;28.00;25.62;99438.97;4451413;32;31774;-85
2022/06/23 08:08:18;;;;;;;0.65;0.57;;;;;;;27.42;26.60;99436.94;4449582;32;34488;-85
2022/06/23 08:12:52;;;;;;;2.95;0.85;;;;;;;27.48;26.11;99439.09;4462778;32;33747;-85
2022/06/23 08:13:38;;;;;;;5.72;0.60;;;;;;;27.47;27.70;99437.37;4457450;32;33503;-85
2022/06/23 08:19:02;;;;;;;1.25;0.50;;;;;;;27.46;28.33;99435.72;4454542;32;34272;-85
2022/06/23 08:21:35;;;;;;;0.60;0.50;;;;;;;26.89;28.08;99439.72;4456900;32;33693;-85
2022/06/23 08:24:08;;;;;;;2.60;0.80;;;;;;;27.24;27.61;99445.56;4455438;32;33410;-85
2022/06/23 08:26:40;;;;;;;1.40;0.60;;;;;;;27.26;28.40;99440.12;4465458;32;32942;-86
2022/06/23 08:29:11;;;;;;;0.93;0.55;;;;;;;27.71;26.93;99430.88;4458530;32;34229;-85
2022/06/23 08:31:40;;;;;;;1.30;0.60;;;;;;;27.80;26.15;99424.72;4457607;32;33920;-86
2022/06/23 08:34:31;;;;;;;0.82;0.70;;;;;;;27.58;27.30;99433.78;4458559;32;34197;-86
2022/06/23 08:37:03;;;;;;;1.12;0.80;;;;;;;27.66;27.19;99431.28;4462033;32;34325;-85
2022/06/23 08:39:39;;;;;;;5.68;1.15;;;;;;;27.74;26.66;99428.78;4457272;32;33564;-85
2022/06/23 08:42:16;;;;;;;0.60;0.47;;;;;;;27.62;28.53;99432.56;4460147;32;33820;-86
2022/06/23 08:44:51;;;;;;;1.23;0.70;;;;;;;27.79;26.79;99426.56;4463921;32;33514;-86
2022/06/23 08:47:23;;;;;;;0.88;0.50;;;;;;;27.94;25.99;99428.87;4459552;32;33661;-86
2022/06/23 08:49:55;;;;;;;1.12;1.02;;;;;;;28.20;26.59;99424.69;4458452;32;33475;-86
2022/06/23 08:52:30;;;;;;;0.62;0.45;;;;;;;28.30;26.66;99433.53;4461287;32;34011;-86
2022/06/23 08:55:04;;;;;;;0.73;0.52;;;;;;;28.32;26.89;99433.41;4456973;32;34438;-86
2022/06/23 08:57:39;;;;;;;1.20;0.60;;;;;;;28.26;25.88;99429.44;4452494;32;33453;-86
2022/06/23 09:00:12;;;;;;;1.27;0.52;;;;;;;27.96;25.47;99437.56;4460146;32;32232;-86
2022/06/23 09:02:46;;;;;;;1.40;0.68;;;;;;;28.34;25.14;99430.56;4457395;32;33603;-86
2022/06/23 09:05:42;;;;;;;1.48;0.55;;;;;;;28.70;24.68;99437.87;4453917;32;33046;-85
2022/06/23 09:08:17;;;;;;;1.40;0.70;;;;;;;28.50;24.49;99426.38;4459580;32;33386;-85
2022/06/23 09:11:10;;;;;;;1.33;0.75;;;;;;;28.47;24.93;99426.69;4461054;32;33878;-85
2022/06/23 09:13:55;;;;;;;1.65;0.95;;;;;;;28.27;24.23;99430.28;4457195;32;33645;-86
2022/06/23 09:16:45;;;;;;;0.75;0.50;;;;;;;28.23;24.59;99423.56;4458244;32;33806;-86
2022/06/23 09:19:28;;;;;;;1.85;0.93;;;;;;;28.14;24.44;99417.22;4458717;32;33242;-86
2022/06/23 09:22:21;;;;;;;0.85;0.60;;;;;;;28.42;26.30;99431.56;4462229;32;34560;-85
2022/06/23 09:25:01;;;;;;;1.27;0.60;;;;;;;28.56;25.65;99422.31;4459964;32;34228;-85
2022/06/23 09:27:44;;;;;;;1.75;0.43;;;;;;;28.54;25.04;99426.97;4457545;32;33501;-87
2022/06/23 09:30:19;;;;;;;0.40;0.40;;;;;;;28.71;25.23;99428.91;4459958;32;33996;-86
2022/06/23 09:32:58;;;;;;;0.80;0.50;;;;;;;28.82;24.65;99430.56;4457258;32;33881;-87
2022/06/23 09:35:44;;;;;;;0.50;0.30;;;;;;;29.29;24.17;99427.09;4461950;32;33518;-86
2022/06/23 09:38:25;;;;;;;0.57;0.40;;;;;;;29.59;23.81;99428.63;4459425;32;33700;-85
2022/06/23 09:41:01;;;;;;;1.00;0.50;;;;;;;29.68;23.02;99426.94;4458602;32;33969;-86
2022/06/23 09:43:48;;;;;;;0.45;0.45;;;;;;;29.76;23.19;99425.19;4467258;32;33968;-86
2022/06/23 09:46:34;;;;;;;0.62;0.52;;;;;;;29.69;23.47;99429.44;4457236;32;34768;-85
2022/06/23 09:49:24;;;;;;;0.40;0.40;;;;;;;29.94;22.64;99422.56;4466605;32;34581;-86
2022/06/23 09:52:13;;;;;;;1.65;1.17;;;;;;;29.44;22.35;99425.62;4456720;32;33253;-86
2022/06/23 09:55:00;;;;;;;0.73;0.43;;;;;;;29.57;21.39;99425.25;4463536;32;33803;-85
2022/06/23 09:58:05;;;;;;;0.60;0.40;;;;;;;29.75;21.95;99409.31;4459885;32;34391;-85
2022/06/23 10:00:41;;;;;;;0.70;0.40;;;;;;;30.23;22.39;99407.25;4368070;32;33723;-86
2022/06/23 10:03:27;;;;;;;3.15;0.50;;;;;;;30.65;20.86;99409.34;4381536;32;34088;-86
2022/06/23 10:06:05;;;;;;;0.37;0.30;;;;;;;30.90;21.33;99408.50;4379722;32;33518;-86
2022/06/23 10:08:42;;;;;;;0.50;0.50;;;;;;;30.07;22.62;99407.97;4379738;32;33952;-87
2022/06/23 10:11:32;;;;;;;0.47;0.32;;;;;;;30.54;22.14;99419.28;4386138;32;34399;-86
2022/06/23 10:14:12;;;;;;;2.35;0.50;;;;;;;30.62;21.18;99415.84;4381268;32;34004;-86
2022/06/23 10:16:49;;;;;;;0.60;0.45;;;;;;;30.96;20.78;99412.41;4379187;32;34526;-86
2022/06/23 10:19:40;;;;;;;0.47;0.47;;;;;;;30.68;20.37;99412.53;4377956;32;33795;-85
2022/06/23 10:22:35;;;;;;;1.75;0.93;;;;;;;30.77;20.50;99408.06;4379973;32;33589;-86
2022/06/23 10:25:28;;;;;;;2.28;0.50;;;;;;;30.65;20.14;99403.97;4371842;32;33364;-86
2022/06/23 10:28:08;;;;;;;1.12;0.40;;;;;;;31.27;19.88;99410.09;4381500;32;34229;-86
2022/06/23 10:30:42;;;;;;;1.80;0.60;;;;;;;31.15;20.36;99411.34;4379774;32;34350;-87
2022/06/23 10:33:24;;;;;;;1.08;0.60;;;;;;;31.21;20.70;99419.56;4378580;32;33473;-86
2022/06/23 10:36:16;;;;;;;1.15;0.68;;;;;;;31.18;19.47;99403.81;4388481;32;34126;-86
2022/06/23 10:38:59;;;;;;;1.15;0.40;;;;;;;31.70;18.77;99404.72;4456317;32;34363;-87
2022/06/23 10:41:48;;;;;;;1.40;0.40;;;;;;;31.88;19.07;99408.13;4457616;32;33810;-86
2022/06/23 10:44:49;;;;;;;1.10;0.50;;;;;;;31.98;18.41;99405.34;4462492;32;33735;-86
2022/06/23 10:47:38;;;;;;;0.65;0.37;;;;;;;32.40;18.84;99396.31;4459230;32;34002;-86
2022/06/23 10:50:22;;;;;;;0.93;0.57;;;;;;;32.86;18.55;99407.37;4453833;32;33442;-86
2022/06/23 10:53:31;;;;;;;0.43;0.30;;;;;;;33.19;18.30;99415.41;4452149;32;34067;-86
2022/06/23 10:56:28;;;;;;;0.22;0.22;;;;;;;32.94;17.75;99404.69;4459797;32;33547;-87
2022/06/23 10:59:17;;;;;;;1.02;0.30;;;;;;;33.42;17.68;99402.88;4457520;32;33283;-86
2022/06/23 11:01:58;;;;;;;0.80;0.40;;;;;;;33.49;17.24;99405.69;4454671;32;33403;-86
2022/06/23 11:04:41;;;;;;;1.37;0.45;;;;;;;33.28;16.67;99392.84;4452917;32;34641;-86
2022/06/23 11:07:20;;;;;;;1.15;0.43;;;;;;;32.59;16.66;99400.53;4458903;32;34199;-86
2022/06/23 11:09:59;;;;;;;1.05;0.40;;;;;;;32.44;16.28;99400.34;4463140;32;33542;-86
2022/06/23 11:12:41;;;;;;;1.60;0.28;;;;;;;32.61;17.51;99403.88;4461552;32;33851;-86
2022/06/23 11:15:19;;;;;;;0.28;0.28;;;;;;;32.58;16.27;99405.06;4459622;32;34610;-86
2022/06/23 11:18:01;;;;;;;1.20;0.47;;;;;;;32.16;17.60;99399.81;4459073;32;33659;-86
2022/06/23 11:20:39;;;;;;;3.87;0.20;;;;;;;32.93;16.67;99405.69;4457460;32;33399;-86
2022/06/23 11:23:14;;;;;;;0.80;0.30;;;;;;;33.07;17.35;99399.63;4461676;32;33792;-85
2022/06/23 11:25:52;;;;;;;0.20;0.20;;;;;;;32.92;16.92;99395.94;4455870;32;34018;-86
2022/06/23 11:28:30;;;;;;;1.27;0.45;;;;;;;32.47;18.58;99403.50;4457631;32;33661;-85
2022/06/23 11:31:10;;;;;;;0.55;0.30;;;;;;;32.47;18.16;99400.00;4464556;32;33267;-86
2022/06/23 11:34:11;;;;;;;1.45;0.30;;;;;;;33.03;17.07;99398.31;4460520;32;34533;-86
2022/06/23 11:37:19;;;;;;;0.28;0.15;;;;;;;33.17;16.18;99388.66;4458603;32;34541;-87
2022/06/23 11:40:07;;;;;;;2.72;1.08;;;;;;;33.07;16.61;99388.88;4464069;32;33601;-85
2022/06/23 11:43:04;;;;;;;1.10;0.35;;;;;;;33.40;16.08;99394.16;4449097;32;33177;-87
2022/06/23 11:45:42;;;;;;;4.28;0.22;;;;;;;33.76;15.56;99383.72;4456160;32;33955;-86
2022/06/23 11:48:33;;;;;;;0.82;0.30;;;;;;;33.66;15.68;99390.34;4456900;32;33849;-86
2022/06/23 11:51:08;;;;;;;0.20;0.20;;;;;;;34.12;15.54;99387.72;4458393;32;34147;-85
2022/06/23 11:54:03;;;;;;;0.43;0.30;;;;;;;34.67;15.36;99391.16;4460705;32;34004;-86
2022/06/23 11:56:44;;;;;;;0.10;0.10;;;;;;;34.22;16.32;99391.03;4457684;32;34586;-86
2022/06/23 11:59:26;;;;;;;0.75;0.30;;;;;;;34.88;14.81;99385.88;4459811;32;34041;-85
2022/06/23 12:02:14;;;;;;;1.25;0.40;;;;;;;33.39;15.55;99397.81;4461254;32;32502;-87
2022/06/23 12:05:10;;;;;;;1.65;0.45;;;;;;;34.30;14.30;99387.41;4467549;32;33302;-86
2022/06/23 12:07:48;;;;;;;0.32;0.20;;;;;;;34.21;15.34;99397.41;4456119;32;32814;-87
2022/06/23 12:10:20;;;;;;;0.40;0.28;;;;;;;33.63;15.18;99399.59;4446367;32;32935;-86
2022/06/23 12:12:50;;;;;;;2.33;0.40;;;;;;;34.15;15.10;99396.28;4468736;32;32246;-86
2022/06/23 12:15:24;;;;;;;1.17;0.30;;;;;;;34.09;15.24;99388.06;4467420;32;33128;-88
2022/06/23 12:17:56;;;;;;;0.80;0.40;;;;;;;33.61;16.38;99393.56;4461537;32;33525;-88
2022/06/23 12:20:30;;;;;;;1.25;0.40;;;;;;;33.92;20.13;99398.91;4462633;32;34824;-86
2022/06/23 12:23:03;;;;;;;1.83;0.47;;;;;;;33.48;19.48;99396.78;4467996;32;33645;-88
2022/06/23 12:25:38;;;;;;;1.55;0.52;;;;;;;33.17;19.79;99393.22;4446839;32;31995;-86